Oceano, CA

12:10 PM PST on February 08, 2016 (GMT -0800)
The Pike & South Elm | | Change Station
CLOSE
Current Station
Personal Weather Station
Location: Arroyo Grande, CA
Elevation: 72 ft
Nearby Weather Stations

Elev 72 ft 35.10 °N, 120.60 °W | Updated 13 seconds ago

Clear
Clear
71.6 °F
Feels Like 77 °F
N
3.6
Wind Variable Wind from South
Gusts 4.9 mph

Today
High -- | Low -- °F
--% Chance of Precip.
Yesterday
High -- | Low -- °F
Precip. -- in
Pressure 30.14 in
Visibility 10.0 miles
Clouds Clear
Heat Index 77 °F
Dew Point 47 °F
Humidity 42%
Rainfall 0.00 in
Snow Depth Not available.
6:55 AM 5:37 PM
New Moon, 0% visible
METAR KSBP 081956Z 18007KT 10SM CLR 29/03 A3014 RMK AO2 SLP205 T02890033
Pressure 30.14 in
Visibility 10.0 miles
Clouds Clear
Heat Index 77 °F
Dew Point 47 °F
Humidity 42%
Rainfall 0.00 in
Snow Depth Not available.
6:55 AM 5:37 PM
New Moon, 0% visible
METAR KSBP 081956Z 18007KT 10SM CLR 29/03 A3014 RMK AO2 SLP205 T02890033

10-Day Weather Forecast

Almanac

Astronomy

Feb. 08, 2016 Rise Set
Actual Time
Civil Twilight
Nautical Twilight
Astronomical Twilight
Moon
Length of Visible Light
Length of Day
Tomorrow will be .
, % of the Moon is Illuminated

Today's Extremes

State Highs State Lows

Community

WunderPhotos

Upload Photos

1,891,503 photos uploaded!

WunderBlog® & News

Nearby

Air Quality

  Air Quality AQ Index Pollutant
Not available.

Snow Depth

Station Depth Elevation

Earthquake Activity

City Distance Mag. Time & Date
Minimum magnitude displayed is 2.5.

Coastal Water Temperatures

Place Temperature

Stations

Nearby Weather Stations

Station Location Temp. Windchill Dew Point Humidity Wind Precip. Elev Updated Type
                   

Watches & Warnings

There are currently no watches in effect.